LDOS

Osijek Airport

Osijek, Croatia
TAF AMD LDOS 182052Z 1820/1918 VRB02KT 0100 FZFG VV001 TXM02/1913Z TNM09/1905Z PROB40 TEMPO 1820/1911 0600 VV003 PROB40 1911/1916 3000 BR OVC005
Issued Valid From Valid To
Dec-18 @ 20:52 UTC
(2 hours ago)
Dec-18 @ 20:00 UTC
(3 hours ago)
Dec-19 @ 18:00 UTC
(in 19 hours)
Dec-18 @ 20:00 to Dec-19 @ 18:00
TAF AMD LDOS 182052Z 1820/1918 VRB02KT 0100 FZFG VV001 TXM02/1913Z TNM09/1905Z
Wind Visibility Clouds Conditions
Variable at 2 knots 97 meters
  • Vertical visibility at 100' AGL
  • Freezing
  • Fog
Temporary  (Probability 40%) Dec-18 @ 20:00 to Dec-19 @ 11:00
PROB40 TEMPO 1820/1911 0600 VV003
Visibility Clouds
595 meters
  • Vertical visibility at 300' AGL
Probable  (Probability 40%) Dec-19 @ 11:00 to Dec-19 @ 16:00
PROB40 1911/1916 3000 BR OVC005
Visibility Clouds Conditions
2,993 meters
  • Overcast at 500' AGL
  • Mist
TAF AMD LDOS 182052Z 1820/1918 VRB02KT 0100 FZFG VV001 TXM02/1913Z TNM09/1905Z PROB40 TEMPO 1820/1911 0600 VV003 PROB40 1911/1916 3000 BR OVC005
Issued Dec-18 @ 20:52 UTC
(2 hours ago)
Valid From Dec-18 @ 20:00 UTC
(3 hours ago)
Valid To Dec-19 @ 18:00 UTC
(in 19 hours)
Dec-18 @ 20:00 - Dec-19 @ 18:00
Wind Visibility
Variable at 2 knots 97 meters
Clouds
  • Vertical visibility at 100' AGL
Conditions
  • Freezing
  • Fog
Probability 40% Temporary Dec-18 @ 20:00 - Dec-19 @ 11:00
Clouds
  • Vertical visibility at 300' AGL
Probability 40% Probable Dec-19 @ 11:00 - Dec-19 @ 16:00
Clouds
  • Overcast at 500' AGL
Conditions
  • Mist